EmailTwitter


Observations de surface / France / LFBO (07630)

Régions: Québec | Canada | États-Unis | Europe | France | UK | Ailleurs
Station
Affichage
Infos & localisation pour LFBO (07630) | Aide pour décoder les METARs

Observations prises le 2019-09-22 à 18H30 UTC à TOULOUSE/BLAGNAC, FR (LFBO)

Etat du ciel: couvert.

Température: 17.0 Celsius

Point de rosée: 15.0 Celsius

Humidité relative: 88%

Indice Humidex: 21.

Vents: Sud à 13 km/h ou 7 noeuds.

Pression au niveau moyen de la mer: 101.60 kilopascals.

Visibilité horizontale: 6.21 milles terrestres ou 9.94 kilomètres.

Hauteur du plafond: 1433 mètres ( 4700 pieds ).

Observation METAR:

LFBO 221830Z AUTO 19007KT 9999 FEW023 BKN047 OVC098 17/15 Q1016 NOSIG=